sensor_id;sensor_type;location;lat;lon;timestamp;P1;durP1;ratioP1;P2;durP2;ratioP2
19507;SDS011;40157;42.566;27.526;2023-02-11T00:00:12;14.30;;;7.20;;
19507;SDS011;40157;42.566;27.526;2023-02-11T00:02:13;16.43;;;7.33;;
19507;SDS011;40157;42.566;27.526;2023-02-11T00:04:14;17.93;;;7.07;;
19507;SDS011;40157;42.566;27.526;2023-02-11T00:06:15;18.33;;;7.10;;
19507;SDS011;40157;42.566;27.526;2023-02-11T00:08:16;20.53;;;9.20;;
19507;SDS011;40157;42.566;27.526;2023-02-11T00:10:16;23.93;;;9.50;;
19507;SDS011;40157;42.566;27.526;2023-02-11T00:12:17;19.13;;;8.43;;
19507;SDS011;40157;42.566;27.526;2023-02-11T00:14:18;24.47;;;10.20;;
19507;SDS011;40157;42.566;27.526;2023-02-11T00:16:19;24.83;;;10.03;;
19507;SDS011;40157;42.566;27.526;2023-02-11T00:18:20;29.63;;;10.33;;
19507;SDS011;40157;42.566;27.526;2023-02-11T00:20:20;20.70;;;8.67;;
19507;SDS011;40157;42.566;27.526;2023-02-11T00:22:21;20.47;;;9.67;;
19507;SDS011;40157;42.566;27.526;2023-02-11T00:24:21;23.60;;;10.07;;
19507;SDS011;40157;42.566;27.526;2023-02-11T00:26:23;22.97;;;9.90;;
19507;SDS011;40157;42.566;27.526;2023-02-11T00:28:25;18.43;;;9.40;;
19507;SDS011;40157;42.566;27.526;2023-02-11T00:30:26;33.37;;;11.23;;
19507;SDS011;40157;42.566;27.526;2023-02-11T00:32:26;25.13;;;11.43;;
19507;SDS011;40157;42.566;27.526;2023-02-11T00:34:27;25.53;;;11.30;;
19507;SDS011;40157;42.566;27.526;2023-02-11T00:36:27;30.13;;;10.77;;
19507;SDS011;40157;42.566;27.526;2023-02-11T00:38:29;26.57;;;10.17;;
19507;SDS011;40157;42.566;27.526;2023-02-11T00:40:29;21.30;;;10.73;;
19507;SDS011;40157;42.566;27.526;2023-02-11T00:42:29;23.57;;;11.30;;
19507;SDS011;40157;42.566;27.526;2023-02-11T00:44:30;25.90;;;11.17;;
19507;SDS011;40157;42.566;27.526;2023-02-11T00:46:31;28.03;;;13.10;;
19507;SDS011;40157;42.566;27.526;2023-02-11T00:48:31;32.57;;;13.20;;
19507;SDS011;40157;42.566;27.526;2023-02-11T00:50:32;26.70;;;11.50;;
19507;SDS011;40157;42.566;27.526;2023-02-11T00:52:33;30.97;;;10.53;;
19507;SDS011;40157;42.566;27.526;2023-02-11T00:54:33;34.10;;;12.27;;
19507;SDS011;40157;42.566;27.526;2023-02-11T00:56:34;41.90;;;14.23;;
19507;SDS011;40157;42.566;27.526;2023-02-11T00:58:35;38.47;;;14.13;;
19507;SDS011;40157;42.566;27.526;2023-02-11T01:00:36;35.10;;;12.63;;
19507;SDS011;40157;42.566;27.526;2023-02-11T01:02:36;34.97;;;14.40;;
19507;SDS011;40157;42.566;27.526;2023-02-11T01:04:37;39.57;;;14.30;;
19507;SDS011;40157;42.566;27.526;2023-02-11T01:06:37;29.73;;;13.70;;
19507;SDS011;40157;42.566;27.526;2023-02-11T01:08:38;32.03;;;13.57;;
19507;SDS011;40157;42.566;27.526;2023-02-11T01:10:39;40.83;;;15.90;;
19507;SDS011;40157;42.566;27.526;2023-02-11T01:12:39;37.67;;;15.07;;
19507;SDS011;40157;42.566;27.526;2023-02-11T01:14:40;39.13;;;15.97;;
19507;SDS011;40157;42.566;27.526;2023-02-11T01:16:40;40.50;;;15.33;;
19507;SDS011;40157;42.566;27.526;2023-02-11T01:18:41;44.47;;;17.60;;
19507;SDS011;40157;42.566;27.526;2023-02-11T01:20:43;43.10;;;17.67;;
19507;SDS011;40157;42.566;27.526;2023-02-11T01:22:43;49.57;;;19.93;;
19507;SDS011;40157;42.566;27.526;2023-02-11T01:24:44;35.13;;;16.33;;
19507;SDS011;40157;42.566;27.526;2023-02-11T01:26:44;42.27;;;14.73;;
19507;SDS011;40157;42.566;27.526;2023-02-11T01:28:45;31.93;;;15.63;;
19507;SDS011;40157;42.566;27.526;2023-02-11T01:30:45;35.97;;;14.97;;
19507;SDS011;40157;42.566;27.526;2023-02-11T01:32:46;39.97;;;18.00;;
19507;SDS011;40157;42.566;27.526;2023-02-11T01:34:46;34.93;;;15.10;;
19507;SDS011;40157;42.566;27.526;2023-02-11T01:36:47;33.97;;;15.13;;
19507;SDS011;40157;42.566;27.526;2023-02-11T01:38:47;33.13;;;13.03;;
19507;SDS011;40157;42.566;27.526;2023-02-11T01:40:52;25.50;;;9.97;;
19507;SDS011;40157;42.566;27.526;2023-02-11T01:42:57;20.17;;;8.67;;
19507;SDS011;40157;42.566;27.526;2023-02-11T01:44:58;21.80;;;8.73;;
19507;SDS011;40157;42.566;27.526;2023-02-11T01:47:00;26.83;;;9.20;;
19507;SDS011;40157;42.566;27.526;2023-02-11T01:51:12;22.10;;;8.57;;
19507;SDS011;40157;42.566;27.526;2023-02-11T01:53:17;20.53;;;8.80;;
19507;SDS011;40157;42.566;27.526;2023-02-11T01:55:36;19.23;;;8.07;;
19507;SDS011;40157;42.566;27.526;2023-02-11T01:57:57;21.57;;;8.63;;
19507;SDS011;40157;42.566;27.526;2023-02-11T02:02:25;26.60;;;10.03;;
19507;SDS011;40157;42.566;27.526;2023-02-11T02:04:32;27.07;;;11.30;;
19507;SDS011;40157;42.566;27.526;2023-02-11T02:06:48;28.67;;;13.70;;
19507;SDS011;40157;42.566;27.526;2023-02-11T02:09:01;36.77;;;13.80;;
19507;SDS011;40157;42.566;27.526;2023-02-11T02:11:05;32.83;;;14.37;;
19507;SDS011;40157;42.566;27.526;2023-02-11T02:13:06;37.10;;;15.17;;
19507;SDS011;40157;42.566;27.526;2023-02-11T02:17:33;32.60;;;13.20;;
19507;SDS011;40157;42.566;27.526;2023-02-11T02:36:23;17.03;;;7.93;;
19507;SDS011;40157;42.566;27.526;2023-02-11T02:40:47;14.43;;;6.43;;
19507;SDS011;40157;42.566;27.526;2023-02-11T02:42:47;17.53;;;6.07;;
19507;SDS011;40157;42.566;27.526;2023-02-11T02:44:50;15.73;;;6.07;;
19507;SDS011;40157;42.566;27.526;2023-02-11T02:46:52;18.93;;;7.13;;
19507;SDS011;40157;42.566;27.526;2023-02-11T02:48:52;14.27;;;5.87;;
19507;SDS011;40157;42.566;27.526;2023-02-11T02:50:59;14.00;;;5.87;;
19507;SDS011;40157;42.566;27.526;2023-02-11T02:57:56;21.30;;;5.77;;
19507;SDS011;40157;42.566;27.526;2023-02-11T03:06:33;15.13;;;6.57;;
19507;SDS011;40157;42.566;27.526;2023-02-11T03:08:42;17.53;;;6.90;;
19507;SDS011;40157;42.566;27.526;2023-02-11T03:10:44;12.97;;;6.53;;
19507;SDS011;40157;42.566;27.526;2023-02-11T03:12:49;15.57;;;6.73;;
19507;SDS011;40157;42.566;27.526;2023-02-11T03:14:52;16.63;;;6.30;;
19507;SDS011;40157;42.566;27.526;2023-02-11T03:16:53;17.23;;;7.00;;
19507;SDS011;40157;42.566;27.526;2023-02-11T03:19:02;16.00;;;5.73;;
19507;SDS011;40157;42.566;27.526;2023-02-11T03:21:17;10.53;;;4.97;;
19507;SDS011;40157;42.566;27.526;2023-02-11T03:23:29;12.77;;;5.57;;
19507;SDS011;40157;42.566;27.526;2023-02-11T03:25:47;21.43;;;6.77;;
19507;SDS011;40157;42.566;27.526;2023-02-11T03:28:05;15.43;;;6.53;;
19507;SDS011;40157;42.566;27.526;2023-02-11T03:30:17;10.77;;;5.20;;
19507;SDS011;40157;42.566;27.526;2023-02-11T03:32:25;16.33;;;5.10;;
19507;SDS011;40157;42.566;27.526;2023-02-11T03:37:16;12.07;;;5.07;;
19507;SDS011;40157;42.566;27.526;2023-02-11T03:39:39;11.73;;;4.93;;
19507;SDS011;40157;42.566;27.526;2023-02-11T03:41:44;9.00;;;5.10;;
19507;SDS011;40157;42.566;27.526;2023-02-11T03:43:48;13.07;;;4.80;;
19507;SDS011;40157;42.566;27.526;2023-02-11T03:45:51;12.87;;;5.03;;
19507;SDS011;40157;42.566;27.526;2023-02-11T03:47:56;15.93;;;5.90;;
19507;SDS011;40157;42.566;27.526;2023-02-11T03:50:03;16.00;;;5.03;;
19507;SDS011;40157;42.566;27.526;2023-02-11T03:52:07;15.33;;;5.50;;
19507;SDS011;40157;42.566;27.526;2023-02-11T03:54:11;11.03;;;4.73;;
19507;SDS011;40157;42.566;27.526;2023-02-11T03:56:16;17.03;;;5.10;;
19507;SDS011;40157;42.566;27.526;2023-02-11T03:58:19;12.60;;;4.87;;
19507;SDS011;40157;42.566;27.526;2023-02-11T04:00:20;13.63;;;5.87;;
19507;SDS011;40157;42.566;27.526;2023-02-11T04:02:29;14.53;;;5.77;;
19507;SDS011;40157;42.566;27.526;2023-02-11T04:04:32;19.10;;;6.80;;
19507;SDS011;40157;42.566;27.526;2023-02-11T04:06:32;9.00;;;4.30;;
19507;SDS011;40157;42.566;27.526;2023-02-11T04:08:33;8.33;;;4.40;;
19507;SDS011;40157;42.566;27.526;2023-02-11T04:10:33;10.57;;;5.27;;
19507;SDS011;40157;42.566;27.526;2023-02-11T04:12:34;12.73;;;5.23;;
19507;SDS011;40157;42.566;27.526;2023-02-11T04:14:35;20.07;;;5.70;;
19507;SDS011;40157;42.566;27.526;2023-02-11T04:16:35;12.47;;;5.07;;
19507;SDS011;40157;42.566;27.526;2023-02-11T04:18:36;14.97;;;5.13;;
19507;SDS011;40157;42.566;27.526;2023-02-11T04:20:36;13.60;;;5.40;;
19507;SDS011;40157;42.566;27.526;2023-02-11T04:22:37;11.07;;;5.00;;
19507;SDS011;40157;42.566;27.526;2023-02-11T04:24:37;16.57;;;7.27;;
19507;SDS011;40157;42.566;27.526;2023-02-11T04:26:38;15.73;;;6.90;;
19507;SDS011;40157;42.566;27.526;2023-02-11T04:28:38;14.47;;;5.70;;
19507;SDS011;40157;42.566;27.526;2023-02-11T04:30:39;17.23;;;6.97;;
19507;SDS011;40157;42.566;27.526;2023-02-11T04:32:39;14.27;;;5.27;;
19507;SDS011;40157;42.566;27.526;2023-02-11T04:34:40;11.97;;;5.90;;
19507;SDS011;40157;42.566;27.526;2023-02-11T04:36:41;19.20;;;5.83;;
19507;SDS011;40157;42.566;27.526;2023-02-11T04:38:41;14.53;;;6.70;;
19507;SDS011;40157;42.566;27.526;2023-02-11T04:40:42;13.60;;;6.23;;
19507;SDS011;40157;42.566;27.526;2023-02-11T04:42:42;17.30;;;8.03;;
19507;SDS011;40157;42.566;27.526;2023-02-11T04:44:43;24.53;;;10.20;;
19507;SDS011;40157;42.566;27.526;2023-02-11T04:46:44;38.00;;;14.30;;
19507;SDS011;40157;42.566;27.526;2023-02-11T04:48:44;35.47;;;15.10;;
19507;SDS011;40157;42.566;27.526;2023-02-11T04:50:44;30.00;;;13.10;;
19507;SDS011;40157;42.566;27.526;2023-02-11T04:52:45;38.17;;;13.77;;
19507;SDS011;40157;42.566;27.526;2023-02-11T04:54:45;30.70;;;13.53;;
19507;SDS011;40157;42.566;27.526;2023-02-11T04:56:46;26.60;;;12.40;;
19507;SDS011;40157;42.566;27.526;2023-02-11T04:58:48;31.27;;;11.47;;
19507;SDS011;40157;42.566;27.526;2023-02-11T05:00:49;34.03;;;12.50;;
19507;SDS011;40157;42.566;27.526;2023-02-11T05:02:49;34.60;;;13.63;;
19507;SDS011;40157;42.566;27.526;2023-02-11T05:04:50;35.10;;;14.43;;
19507;SDS011;40157;42.566;27.526;2023-02-11T05:06:50;33.60;;;14.27;;
19507;SDS011;40157;42.566;27.526;2023-02-11T05:08:51;36.67;;;13.30;;
19507;SDS011;40157;42.566;27.526;2023-02-11T05:10:51;43.53;;;15.20;;
19507;SDS011;40157;42.566;27.526;2023-02-11T05:12:52;38.90;;;14.33;;
19507;SDS011;40157;42.566;27.526;2023-02-11T05:14:52;43.57;;;15.97;;
19507;SDS011;40157;42.566;27.526;2023-02-11T05:16:52;49.07;;;17.27;;
19507;SDS011;40157;42.566;27.526;2023-02-11T05:18:53;44.37;;;16.33;;
19507;SDS011;40157;42.566;27.526;2023-02-11T05:20:54;52.30;;;17.07;;
19507;SDS011;40157;42.566;27.526;2023-02-11T05:22:55;55.63;;;20.23;;
19507;SDS011;40157;42.566;27.526;2023-02-11T05:24:55;67.67;;;22.33;;
19507;SDS011;40157;42.566;27.526;2023-02-11T05:26:56;45.10;;;18.87;;
19507;SDS011;40157;42.566;27.526;2023-02-11T05:28:58;47.03;;;17.50;;
19507;SDS011;40157;42.566;27.526;2023-02-11T05:30:58;45.40;;;18.67;;
19507;SDS011;40157;42.566;27.526;2023-02-11T05:32:58;42.60;;;15.47;;
19507;SDS011;40157;42.566;27.526;2023-02-11T05:34:59;29.77;;;11.43;;
19507;SDS011;40157;42.566;27.526;2023-02-11T05:37:00;21.13;;;9.37;;
19507;SDS011;40157;42.566;27.526;2023-02-11T05:39:00;21.63;;;8.33;;
19507;SDS011;40157;42.566;27.526;2023-02-11T05:41:00;42.73;;;16.53;;
19507;SDS011;40157;42.566;27.526;2023-02-11T05:43:01;44.10;;;19.67;;
19507;SDS011;40157;42.566;27.526;2023-02-11T05:45:02;31.13;;;14.43;;
19507;SDS011;40157;42.566;27.526;2023-02-11T05:47:02;22.90;;;10.60;;
19507;SDS011;40157;42.566;27.526;2023-02-11T05:49:03;21.83;;;9.50;;
19507;SDS011;40157;42.566;27.526;2023-02-11T05:51:03;23.13;;;9.27;;
19507;SDS011;40157;42.566;27.526;2023-02-11T05:53:04;22.83;;;9.37;;
19507;SDS011;40157;42.566;27.526;2023-02-11T05:55:05;21.83;;;8.77;;
19507;SDS011;40157;42.566;27.526;2023-02-11T05:57:06;14.37;;;6.87;;
19507;SDS011;40157;42.566;27.526;2023-02-11T05:59:06;17.87;;;7.40;;
19507;SDS011;40157;42.566;27.526;2023-02-11T06:01:07;25.47;;;11.33;;
19507;SDS011;40157;42.566;27.526;2023-02-11T06:03:08;38.30;;;15.53;;
19507;SDS011;40157;42.566;27.526;2023-02-11T06:05:08;64.50;;;20.30;;
19507;SDS011;40157;42.566;27.526;2023-02-11T06:07:09;27.07;;;9.43;;
19507;SDS011;40157;42.566;27.526;2023-02-11T06:09:09;19.07;;;7.37;;
19507;SDS011;40157;42.566;27.526;2023-02-11T06:11:13;6.50;;;3.43;;
19507;SDS011;40157;42.566;27.526;2023-02-11T06:13:14;22.13;;;8.13;;
19507;SDS011;40157;42.566;27.526;2023-02-11T06:15:17;19.10;;;7.80;;
19507;SDS011;40157;42.566;27.526;2023-02-11T06:17:18;22.33;;;8.17;;
19507;SDS011;40157;42.566;27.526;2023-02-11T06:19:18;23.03;;;8.93;;
19507;SDS011;40157;42.566;27.526;2023-02-11T06:21:19;15.20;;;6.83;;
19507;SDS011;40157;42.566;27.526;2023-02-11T06:23:19;22.70;;;10.47;;
19507;SDS011;40157;42.566;27.526;2023-02-11T06:25:20;25.20;;;10.53;;
19507;SDS011;40157;42.566;27.526;2023-02-11T06:27:21;28.87;;;12.03;;
19507;SDS011;40157;42.566;27.526;2023-02-11T06:29:21;28.30;;;10.40;;
19507;SDS011;40157;42.566;27.526;2023-02-11T06:31:22;26.67;;;9.93;;
19507;SDS011;40157;42.566;27.526;2023-02-11T06:33:22;20.60;;;9.50;;
19507;SDS011;40157;42.566;27.526;2023-02-11T06:35:23;24.27;;;9.53;;
19507;SDS011;40157;42.566;27.526;2023-02-11T06:37:23;23.90;;;9.00;;
19507;SDS011;40157;42.566;27.526;2023-02-11T06:39:24;46.23;;;17.03;;
19507;SDS011;40157;42.566;27.526;2023-02-11T06:41:24;93.50;;;39.63;;
19507;SDS011;40157;42.566;27.526;2023-02-11T06:43:25;94.43;;;35.27;;
19507;SDS011;40157;42.566;27.526;2023-02-11T06:45:25;36.80;;;15.60;;
19507;SDS011;40157;42.566;27.526;2023-02-11T06:47:26;33.50;;;13.90;;
19507;SDS011;40157;42.566;27.526;2023-02-11T06:49:26;24.13;;;10.67;;
19507;SDS011;40157;42.566;27.526;2023-02-11T06:51:26;23.17;;;7.77;;
19507;SDS011;40157;42.566;27.526;2023-02-11T06:53:27;15.53;;;5.77;;
19507;SDS011;40157;42.566;27.526;2023-02-11T06:55:28;16.67;;;6.67;;
19507;SDS011;40157;42.566;27.526;2023-02-11T06:57:29;18.20;;;7.93;;
19507;SDS011;40157;42.566;27.526;2023-02-11T06:59:30;13.77;;;6.60;;
19507;SDS011;40157;42.566;27.526;2023-02-11T07:01:30;14.17;;;6.40;;
19507;SDS011;40157;42.566;27.526;2023-02-11T07:03:32;16.17;;;6.70;;
19507;SDS011;40157;42.566;27.526;2023-02-11T07:05:35;23.37;;;8.53;;
19507;SDS011;40157;42.566;27.526;2023-02-11T07:07:37;18.60;;;9.10;;
19507;SDS011;40157;42.566;27.526;2023-02-11T07:09:38;26.50;;;9.70;;
19507;SDS011;40157;42.566;27.526;2023-02-11T07:11:38;19.13;;;8.80;;
19507;SDS011;40157;42.566;27.526;2023-02-11T07:13:38;19.73;;;8.87;;
19507;SDS011;40157;42.566;27.526;2023-02-11T07:15:39;31.53;;;13.80;;
19507;SDS011;40157;42.566;27.526;2023-02-11T07:17:39;55.80;;;20.60;;
19507;SDS011;40157;42.566;27.526;2023-02-11T07:19:40;62.70;;;24.83;;
19507;SDS011;40157;42.566;27.526;2023-02-11T07:21:40;71.50;;;27.67;;
19507;SDS011;40157;42.566;27.526;2023-02-11T07:23:41;45.87;;;17.97;;
19507;SDS011;40157;42.566;27.526;2023-02-11T07:25:41;60.10;;;22.10;;
19507;SDS011;40157;42.566;27.526;2023-02-11T07:27:42;105.67;;;35.13;;
19507;SDS011;40157;42.566;27.526;2023-02-11T07:29:42;82.57;;;27.40;;
19507;SDS011;40157;42.566;27.526;2023-02-11T07:31:44;78.37;;;26.40;;
19507;SDS011;40157;42.566;27.526;2023-02-11T07:33:45;105.97;;;32.73;;
19507;SDS011;40157;42.566;27.526;2023-02-11T07:35:46;76.10;;;22.73;;
19507;SDS011;40157;42.566;27.526;2023-02-11T07:37:47;51.90;;;17.30;;
19507;SDS011;40157;42.566;27.526;2023-02-11T07:39:47;34.63;;;11.10;;
19507;SDS011;40157;42.566;27.526;2023-02-11T07:41:48;13.43;;;6.97;;
19507;SDS011;40157;42.566;27.526;2023-02-11T07:43:48;18.23;;;7.63;;
19507;SDS011;40157;42.566;27.526;2023-02-11T07:45:49;22.27;;;9.00;;
19507;SDS011;40157;42.566;27.526;2023-02-11T07:47:49;24.03;;;9.97;;
19507;SDS011;40157;42.566;27.526;2023-02-11T07:49:50;37.93;;;12.67;;
19507;SDS011;40157;42.566;27.526;2023-02-11T07:51:50;31.03;;;12.23;;
19507;SDS011;40157;42.566;27.526;2023-02-11T07:53:51;25.87;;;10.40;;
19507;SDS011;40157;42.566;27.526;2023-02-11T07:55:52;30.70;;;9.83;;
19507;SDS011;40157;42.566;27.526;2023-02-11T07:57:52;40.57;;;9.73;;
19507;SDS011;40157;42.566;27.526;2023-02-11T07:59:53;18.50;;;6.80;;
19507;SDS011;40157;42.566;27.526;2023-02-11T08:01:53;15.30;;;7.27;;
19507;SDS011;40157;42.566;27.526;2023-02-11T08:03:54;19.67;;;8.27;;
19507;SDS011;40157;42.566;27.526;2023-02-11T08:05:56;26.93;;;8.87;;
19507;SDS011;40157;42.566;27.526;2023-02-11T08:07:56;21.63;;;9.17;;
19507;SDS011;40157;42.566;27.526;2023-02-11T08:09:57;21.50;;;8.00;;
19507;SDS011;40157;42.566;27.526;2023-02-11T08:11:57;21.77;;;8.67;;
19507;SDS011;40157;42.566;27.526;2023-02-11T08:13:58;28.63;;;11.50;;
19507;SDS011;40157;42.566;27.526;2023-02-11T08:15:58;25.80;;;10.20;;
19507;SDS011;40157;42.566;27.526;2023-02-11T08:17:58;20.40;;;8.57;;
19507;SDS011;40157;42.566;27.526;2023-02-11T08:19:59;24.33;;;8.60;;
19507;SDS011;40157;42.566;27.526;2023-02-11T08:21:59;17.47;;;7.60;;
19507;SDS011;40157;42.566;27.526;2023-02-11T08:24:00;28.13;;;8.67;;
19507;SDS011;40157;42.566;27.526;2023-02-11T08:26:02;19.60;;;8.17;;
19507;SDS011;40157;42.566;27.526;2023-02-11T08:28:04;14.83;;;5.77;;
19507;SDS011;40157;42.566;27.526;2023-02-11T08:30:05;11.87;;;5.30;;
19507;SDS011;40157;42.566;27.526;2023-02-11T08:32:06;14.40;;;5.57;;
19507;SDS011;40157;42.566;27.526;2023-02-11T08:34:06;12.03;;;5.50;;
19507;SDS011;40157;42.566;27.526;2023-02-11T08:36:07;15.37;;;5.77;;
19507;SDS011;40157;42.566;27.526;2023-02-11T08:38:09;14.97;;;6.60;;
19507;SDS011;40157;42.566;27.526;2023-02-11T08:40:10;12.47;;;4.93;;
19507;SDS011;40157;42.566;27.526;2023-02-11T08:42:10;7.17;;;3.40;;
19507;SDS011;40157;42.566;27.526;2023-02-11T08:44:11;10.80;;;4.47;;
19507;SDS011;40157;42.566;27.526;2023-02-11T08:46:12;12.00;;;6.03;;
19507;SDS011;40157;42.566;27.526;2023-02-11T08:48:14;11.10;;;4.47;;
19507;SDS011;40157;42.566;27.526;2023-02-11T08:50:15;12.33;;;4.47;;
19507;SDS011;40157;42.566;27.526;2023-02-11T08:52:15;10.00;;;3.90;;
19507;SDS011;40157;42.566;27.526;2023-02-11T08:54:16;32.03;;;11.10;;
19507;SDS011;40157;42.566;27.526;2023-02-11T08:56:17;15.23;;;6.57;;
19507;SDS011;40157;42.566;27.526;2023-02-11T08:58:19;12.20;;;5.73;;
19507;SDS011;40157;42.566;27.526;2023-02-11T09:00:20;14.27;;;6.40;;
19507;SDS011;40157;42.566;27.526;2023-02-11T09:02:21;12.03;;;4.63;;
19507;SDS011;40157;42.566;27.526;2023-02-11T09:04:21;12.47;;;5.03;;
19507;SDS011;40157;42.566;27.526;2023-02-11T09:06:23;18.03;;;7.40;;
19507;SDS011;40157;42.566;27.526;2023-02-11T09:08:25;19.60;;;7.47;;
19507;SDS011;40157;42.566;27.526;2023-02-11T09:10:25;21.10;;;9.43;;
19507;SDS011;40157;42.566;27.526;2023-02-11T09:12:26;15.77;;;6.73;;
19507;SDS011;40157;42.566;27.526;2023-02-11T09:14:26;12.27;;;5.83;;
19507;SDS011;40157;42.566;27.526;2023-02-11T09:16:28;21.33;;;7.80;;
19507;SDS011;40157;42.566;27.526;2023-02-11T09:18:34;26.33;;;9.57;;
19507;SDS011;40157;42.566;27.526;2023-02-11T09:20:34;19.43;;;7.27;;
19507;SDS011;40157;42.566;27.526;2023-02-11T09:22:35;11.90;;;4.77;;
19507;SDS011;40157;42.566;27.526;2023-02-11T09:24:35;10.60;;;4.43;;
19507;SDS011;40157;42.566;27.526;2023-02-11T09:26:36;13.33;;;5.90;;
19507;SDS011;40157;42.566;27.526;2023-02-11T09:28:36;26.53;;;8.53;;
19507;SDS011;40157;42.566;27.526;2023-02-11T09:30:37;26.90;;;9.63;;
19507;SDS011;40157;42.566;27.526;2023-02-11T09:32:37;19.23;;;7.73;;
19507;SDS011;40157;42.566;27.526;2023-02-11T09:34:38;12.70;;;5.20;;
19507;SDS011;40157;42.566;27.526;2023-02-11T09:36:38;10.57;;;5.33;;
19507;SDS011;40157;42.566;27.526;2023-02-11T09:38:40;13.83;;;7.07;;
19507;SDS011;40157;42.566;27.526;2023-02-11T09:40:41;25.77;;;9.23;;
19507;SDS011;40157;42.566;27.526;2023-02-11T09:42:50;12.00;;;5.50;;
19507;SDS011;40157;42.566;27.526;2023-02-11T09:44:56;7.60;;;4.00;;
19507;SDS011;40157;42.566;27.526;2023-02-11T09:47:01;19.10;;;5.57;;
19507;SDS011;40157;42.566;27.526;2023-02-11T09:49:04;23.80;;;8.53;;
19507;SDS011;40157;42.566;27.526;2023-02-11T09:51:20;19.93;;;7.50;;
19507;SDS011;40157;42.566;27.526;2023-02-11T09:53:37;18.10;;;8.13;;
19507;SDS011;40157;42.566;27.526;2023-02-11T09:55:42;23.23;;;9.20;;
19507;SDS011;40157;42.566;27.526;2023-02-11T09:57:44;20.03;;;6.60;;
19507;SDS011;40157;42.566;27.526;2023-02-11T09:59:44;13.00;;;5.03;;
19507;SDS011;40157;42.566;27.526;2023-02-11T10:02:05;12.40;;;5.57;;
19507;SDS011;40157;42.566;27.526;2023-02-11T10:07:15;15.03;;;6.93;;
19507;SDS011;40157;42.566;27.526;2023-02-11T10:09:56;25.83;;;11.77;;
19507;SDS011;40157;42.566;27.526;2023-02-11T10:24:11;16.20;;;6.63;;
19507;SDS011;40157;42.566;27.526;2023-02-11T10:26:15;11.30;;;5.33;;
19507;SDS011;40157;42.566;27.526;2023-02-11T10:28:21;14.40;;;6.57;;
19507;SDS011;40157;42.566;27.526;2023-02-11T10:30:43;11.33;;;5.53;;
19507;SDS011;40157;42.566;27.526;2023-02-11T10:32:59;16.53;;;7.63;;
19507;SDS011;40157;42.566;27.526;2023-02-11T10:35:09;19.63;;;8.07;;
19507;SDS011;40157;42.566;27.526;2023-02-11T10:37:14;17.47;;;7.27;;
19507;SDS011;40157;42.566;27.526;2023-02-11T10:39:18;14.47;;;8.43;;
19507;SDS011;40157;42.566;27.526;2023-02-11T10:41:25;15.93;;;8.27;;
19507;SDS011;40157;42.566;27.526;2023-02-11T10:43:32;21.83;;;9.07;;
19507;SDS011;40157;42.566;27.526;2023-02-11T10:47:45;13.97;;;6.03;;
19507;SDS011;40157;42.566;27.526;2023-02-11T10:49:45;17.50;;;6.80;;
19507;SDS011;40157;42.566;27.526;2023-02-11T10:51:46;44.63;;;18.40;;
19507;SDS011;40157;42.566;27.526;2023-02-11T10:53:57;20.10;;;8.37;;
19507;SDS011;40157;42.566;27.526;2023-02-11T10:56:26;63.70;;;25.90;;
19507;SDS011;40157;42.566;27.526;2023-02-11T10:58:52;22.10;;;8.63;;
19507;SDS011;40157;42.566;27.526;2023-02-11T11:00:55;17.10;;;5.23;;
19507;SDS011;40157;42.566;27.526;2023-02-11T11:02:58;36.50;;;16.70;;
19507;SDS011;40157;42.566;27.526;2023-02-11T11:05:05;43.80;;;20.27;;
19507;SDS011;40157;42.566;27.526;2023-02-11T11:07:22;22.40;;;8.57;;
19507;SDS011;40157;42.566;27.526;2023-02-11T11:09:47;12.03;;;5.83;;
19507;SDS011;40157;42.566;27.526;2023-02-11T11:11:51;14.73;;;5.77;;
19507;SDS011;40157;42.566;27.526;2023-02-11T11:18:28;12.70;;;6.27;;
19507;SDS011;40157;42.566;27.526;2023-02-11T11:20:29;27.70;;;14.57;;
19507;SDS011;40157;42.566;27.526;2023-02-11T11:22:34;22.33;;;11.83;;
19507;SDS011;40157;42.566;27.526;2023-02-11T11:24:39;20.93;;;6.60;;
19507;SDS011;40157;42.566;27.526;2023-02-11T11:26:44;15.73;;;7.23;;
19507;SDS011;40157;42.566;27.526;2023-02-11T11:30:48;18.07;;;6.60;;
19507;SDS011;40157;42.566;27.526;2023-02-11T11:32:52;15.13;;;7.50;;
19507;SDS011;40157;42.566;27.526;2023-02-11T11:34:54;17.73;;;7.60;;
19507;SDS011;40157;42.566;27.526;2023-02-11T11:36:59;15.33;;;6.50;;
19507;SDS011;40157;42.566;27.526;2023-02-11T11:39:16;16.20;;;7.37;;
19507;SDS011;40157;42.566;27.526;2023-02-11T11:41:29;13.70;;;7.27;;
19507;SDS011;40157;42.566;27.526;2023-02-11T11:43:32;12.00;;;5.73;;
19507;SDS011;40157;42.566;27.526;2023-02-11T11:45:32;12.53;;;5.97;;
19507;SDS011;40157;42.566;27.526;2023-02-11T11:47:40;11.73;;;5.73;;
19507;SDS011;40157;42.566;27.526;2023-02-11T11:54:46;17.57;;;8.10;;
19507;SDS011;40157;42.566;27.526;2023-02-11T11:56:59;15.00;;;7.50;;
19507;SDS011;40157;42.566;27.526;2023-02-11T11:59:12;19.97;;;9.90;;
19507;SDS011;40157;42.566;27.526;2023-02-11T12:03:54;16.63;;;8.30;;
19507;SDS011;40157;42.566;27.526;2023-02-11T12:09:01;16.73;;;7.40;;
19507;SDS011;40157;42.566;27.526;2023-02-11T12:14:03;12.93;;;6.03;;
19507;SDS011;40157;42.566;27.526;2023-02-11T12:16:14;17.43;;;7.47;;
19507;SDS011;40157;42.566;27.526;2023-02-11T12:18:32;19.53;;;7.57;;
19507;SDS011;40157;42.566;27.526;2023-02-11T12:25:27;65.33;;;24.93;;
19507;SDS011;40157;42.566;27.526;2023-02-11T12:27:38;47.83;;;19.80;;
19507;SDS011;40157;42.566;27.526;2023-02-11T12:32:36;29.67;;;14.93;;
19507;SDS011;40157;42.566;27.526;2023-02-11T12:34:55;24.23;;;10.03;;
19507;SDS011;40157;42.566;27.526;2023-02-11T12:44:10;18.90;;;7.73;;
19507;SDS011;40157;42.566;27.526;2023-02-11T12:48:56;16.07;;;8.50;;
19507;SDS011;40157;42.566;27.526;2023-02-11T12:51:15;15.63;;;8.03;;
19507;SDS011;40157;42.566;27.526;2023-02-11T12:53:32;14.57;;;6.90;;
19507;SDS011;40157;42.566;27.526;2023-02-11T12:55:50;16.63;;;7.43;;
19507;SDS011;40157;42.566;27.526;2023-02-11T12:57:57;12.97;;;7.10;;
19507;SDS011;40157;42.566;27.526;2023-02-11T13:00:17;14.13;;;5.70;;
19507;SDS011;40157;42.566;27.526;2023-02-11T13:06:40;13.93;;;6.40;;
19507;SDS011;40157;42.566;27.526;2023-02-11T13:08:46;15.37;;;7.30;;
19507;SDS011;40157;42.566;27.526;2023-02-11T13:10:49;15.23;;;6.50;;
19507;SDS011;40157;42.566;27.526;2023-02-11T13:12:55;14.00;;;6.07;;
19507;SDS011;40157;42.566;27.526;2023-02-11T13:15:14;23.07;;;7.10;;
19507;SDS011;40157;42.566;27.526;2023-02-11T13:17:17;12.73;;;6.93;;
19507;SDS011;40157;42.566;27.526;2023-02-11T13:24:07;25.63;;;9.87;;
19507;SDS011;40157;42.566;27.526;2023-02-11T13:26:25;27.63;;;8.20;;
19507;SDS011;40157;42.566;27.526;2023-02-11T13:30:36;21.23;;;7.57;;
19507;SDS011;40157;42.566;27.526;2023-02-11T13:34:56;23.17;;;9.60;;
19507;SDS011;40157;42.566;27.526;2023-02-11T13:36:57;23.60;;;10.80;;
19507;SDS011;40157;42.566;27.526;2023-02-11T13:38:59;25.17;;;9.67;;
19507;SDS011;40157;42.566;27.526;2023-02-11T13:43:24;20.13;;;8.87;;
19507;SDS011;40157;42.566;27.526;2023-02-11T13:45:32;17.77;;;7.87;;
19507;SDS011;40157;42.566;27.526;2023-02-11T13:47:40;30.97;;;12.73;;